Time;durP1;ratioP1;P1;durP2;ratioP2;P2;SDS_P1;SDS_P2;PMS_P1;PMS_P2;Temp;Humidity;BMP_temperature;BMP_pressure;BME280_temperature;BME280_humidity;BME280_pressure;Samples;Min_cycle;Max_cycle;Signal;HPM_P1;HPM_P2
2023/03/18 00:01:16;;;;;;;30.77;15.30;;;0.60;72.20;;;;;;4975247;28;20110;-77
2023/03/18 00:03:42;;;;;;;24.85;13.85;;;0.60;72.40;;;;;;4975181;28;20174;-76
2023/03/18 00:06:17;;;;;;;27.10;14.75;;;0.60;72.40;;;;;;4973919;28;20019;-78
2023/03/18 00:08:46;;;;;;;27.63;13.32;;;0.50;72.70;;;;;;4975247;28;20094;-76
2023/03/18 00:11:14;;;;;;;22.95;14.05;;;0.50;72.70;;;;;;4975070;28;20019;-79
2023/03/18 00:13:41;;;;;;;28.88;15.95;;;0.50;73.70;;;;;;4973659;28;20039;-80
2023/03/18 00:16:10;;;;;;;28.05;14.93;;;0.50;73.10;;;;;;4975006;28;20085;-79
2023/03/18 00:18:36;;;;;;;29.40;14.98;;;0.50;73.20;;;;;;4973722;28;20484;-77
2023/03/18 00:21:03;;;;;;;26.42;14.93;;;0.40;73.50;;;;;;4973613;28;20102;-80
2023/03/18 00:23:29;;;;;;;26.00;13.80;;;0.40;73.70;;;;;;4973698;28;20026;-79
2023/03/18 00:25:57;;;;;;;28.42;14.13;;;0.40;73.80;;;;;;4974823;28;20029;-80
2023/03/18 00:28:23;;;;;;;26.83;14.68;;;0.40;74.00;;;;;;4973815;28;20659;-80
2023/03/18 00:30:50;;;;;;;29.13;14.50;;;0.40;74.30;;;;;;4973526;28;20018;-80
2023/03/18 00:33:16;;;;;;;24.23;14.50;;;0.40;74.30;;;;;;4973510;28;20068;-79
2023/03/18 00:35:44;;;;;;;28.10;14.15;;;0.40;74.40;;;;;;4974653;28;20053;-77
2023/03/18 00:38:19;;;;;;;27.98;13.50;;;0.50;74.60;;;;;;4974757;28;20019;-79
2023/03/18 00:41:09;;;;;;;25.02;13.07;;;0.40;74.50;;;;;;4973780;28;20019;-76
2023/03/18 00:43:44;;;;;;;25.17;14.18;;;0.40;74.60;;;;;;4974704;28;20027;-77
2023/03/18 00:46:12;;;;;;;24.77;14.88;;;0.40;75.00;;;;;;4973032;28;20436;-79
2023/03/18 00:48:38;;;;;;;28.10;14.43;;;0.40;75.10;;;;;;4973177;28;20061;-77
2023/03/18 00:51:04;;;;;;;25.05;15.18;;;0.50;75.90;;;;;;4974641;28;20019;-77
2023/03/18 00:53:30;;;;;;;27.02;13.98;;;0.50;75.20;;;;;;4974548;28;20085;-79
2023/03/18 00:55:55;;;;;;;27.33;14.45;;;0.40;75.20;;;;;;4973177;28;20109;-79
2023/03/18 00:58:21;;;;;;;30.75;16.80;;;0.40;75.30;;;;;;4973165;28;20101;-76
2023/03/18 01:00:47;;;;;;;24.73;15.38;;;0.40;75.40;;;;;;4973378;28;20023;-76
2023/03/18 01:03:13;;;;;;;27.60;15.70;;;0.40;75.50;;;;;;4974458;28;20127;-79
2023/03/18 01:05:39;;;;;;;23.45;13.23;;;0.40;75.70;;;;;;4973001;28;20034;-78
2023/03/18 01:08:05;;;;;;;29.50;14.70;;;0.40;75.80;;;;;;4974434;28;20503;-79
2023/03/18 01:10:31;;;;;;;24.58;13.82;;;0.40;75.90;;;;;;4974320;28;20027;-76
2023/03/18 01:12:57;;;;;;;23.45;15.25;;;0.30;76.20;;;;;;4973298;28;20045;-79
2023/03/18 01:15:24;;;;;;;29.60;15.10;;;0.30;76.40;;;;;;4973056;28;20070;-81
2023/03/18 01:17:51;;;;;;;24.45;14.20;;;0.30;76.60;;;;;;4973045;28;20025;-77
2023/03/18 01:20:18;;;;;;;27.33;14.52;;;0.20;76.90;;;;;;4974307;28;20093;-77
2023/03/18 01:22:44;;;;;;;22.77;13.18;;;0.20;77.10;;;;;;4972908;28;20027;-81
2023/03/18 01:25:12;;;;;;;22.70;13.35;;;0.10;77.30;;;;;;4974320;28;20030;-80
2023/03/18 01:27:38;;;;;;;29.55;15.07;;;0.10;77.60;;;;;;4972955;28;20492;-78
2023/03/18 01:30:05;;;;;;;24.52;13.93;;;0.10;77.80;;;;;;4972882;28;20081;-80
2023/03/18 01:32:31;;;;;;;29.15;15.23;;;0.10;78.20;;;;;;4972873;28;20492;-79
2023/03/18 01:34:58;;;;;;;26.45;14.35;;;0.00;78.10;;;;;;4977823;28;20038;-80
2023/03/18 01:37:24;;;;;;;25.02;13.25;;;0.00;78.10;;;;;;4992276;28;20109;-78
2023/03/18 01:39:50;;;;;;;23.75;13.50;;;0.10;78.40;;;;;;4993531;28;20072;-77
2023/03/18 01:42:17;;;;;;;23.98;14.15;;;0.00;78.30;;;;;;4993568;28;20026;-80
2023/03/18 01:44:45;;;;;;;22.40;13.93;;;0.00;78.30;;;;;;4992147;28;20026;-77
2023/03/18 01:47:11;;;;;;;30.67;14.82;;;0.00;78.40;;;;;;4992063;28;20377;-80
2023/03/18 01:49:42;;;;;;;23.05;13.48;;;0.00;78.40;;;;;;4992063;28;20027;-80
2023/03/18 01:52:18;;;;;;;25.30;14.02;;;0.00;78.50;;;;;;4993436;28;20034;-80
2023/03/18 01:55:15;;;;;;;27.45;13.48;;;-0.10;78.80;;;;;;4991941;28;20034;-80
2023/03/18 01:57:43;;;;;;;22.77;14.52;;;-0.10;79.10;;;;;;4992830;28;20113;-77
2023/03/18 02:00:10;;;;;;;26.25;13.82;;;-0.20;79.40;;;;;;4996223;28;20108;-77
2023/03/18 02:02:39;;;;;;;27.67;13.13;;;-0.20;79.90;;;;;;4997059;28;20023;-80
2023/03/18 02:05:10;;;;;;;24.23;13.40;;;-0.20;80.30;;;;;;4995594;28;20030;-80
2023/03/18 02:07:36;;;;;;;20.58;13.07;;;-0.20;80.70;;;;;;4995667;28;20019;-77
2023/03/18 02:10:09;;;;;;;25.13;14.20;;;-0.20;80.80;;;;;;4996898;28;20029;-77
2023/03/18 02:12:42;;;;;;;26.42;14.25;;;-0.20;80.90;;;;;;4995485;28;20018;-77
2023/03/18 02:15:13;;;;;;;23.42;13.38;;;-0.20;81.00;;;;;;4996682;28;20088;-80
2023/03/18 02:17:44;;;;;;;23.45;12.73;;;-0.20;80.90;;;;;;4995522;28;20031;-76
2023/03/18 02:20:12;;;;;;;25.40;12.88;;;-0.20;81.10;;;;;;4996852;28;20387;-77
2023/03/18 02:22:42;;;;;;;24.02;12.73;;;-0.20;81.20;;;;;;4996585;28;20503;-77
2023/03/18 02:25:10;;;;;;;27.13;13.55;;;-0.20;81.20;;;;;;4995197;28;20453;-80
2023/03/18 02:27:39;;;;;;;26.77;13.02;;;-0.20;81.20;;;;;;4995068;28;20026;-80
2023/03/18 02:30:11;;;;;;;22.40;12.15;;;-0.30;81.30;;;;;;4995186;28;20022;-80
2023/03/18 02:32:40;;;;;;;22.25;12.82;;;-0.30;81.30;;;;;;4995572;28;20050;-77
2023/03/18 02:35:08;;;;;;;19.83;12.15;;;-0.30;81.50;;;;;;4996344;28;20085;-77
2023/03/18 02:37:34;;;;;;;26.20;14.50;;;-0.30;81.60;;;;;;4996449;28;20109;-76
2023/03/18 02:40:23;;;;;;;19.33;12.02;;;-0.40;81.70;;;;;;4995067;28;20057;-77
2023/03/18 02:42:49;;;;;;;20.75;12.50;;;-0.40;81.90;;;;;;4995062;28;20026;-80
2023/03/18 02:45:32;;;;;;;25.58;13.30;;;-0.40;82.20;;;;;;4996194;28;20050;-80
2023/03/18 02:47:58;;;;;;;;;;;-0.40;82.60;;;;;;4996560;28;20073;-77
2023/03/18 02:50:24;;;;;;;23.63;14.07;;;-0.40;82.70;;;;;;4996211;28;20291;-79
2023/03/18 02:52:50;;;;;;;27.25;12.77;;;-0.40;82.70;;;;;;4995103;28;20076;-77
2023/03/18 02:55:15;;;;;;;22.77;13.15;;;-0.40;82.80;;;;;;4996014;28;20038;-77
2023/03/18 02:57:41;;;;;;;24.52;12.63;;;-0.40;82.80;;;;;;4995987;28;20033;-79
2023/03/18 03:00:08;;;;;;;23.05;12.63;;;-0.40;83.10;;;;;;4996027;28;20064;-82
2023/03/18 03:02:34;;;;;;;24.45;13.35;;;-0.50;83.50;;;;;;4994635;28;20026;-76
2023/03/18 03:04:59;;;;;;;21.00;11.25;;;-0.50;83.90;;;;;;4995894;28;20361;-76
2023/03/18 03:07:26;;;;;;;23.17;13.07;;;-0.50;84.20;;;;;;4995777;28;20042;-80
2023/03/18 03:09:53;;;;;;;24.55;13.20;;;-0.50;84.40;;;;;;4995332;28;20029;-78
2023/03/18 03:12:19;;;;;;;28.90;13.10;;;-0.50;84.70;;;;;;4994368;28;20026;-77
2023/03/18 03:14:44;;;;;;;20.95;12.60;;;-0.50;84.70;;;;;;4994285;28;20042;-76
2023/03/18 03:17:10;;;;;;;23.23;13.15;;;-0.50;84.80;;;;;;4994395;28;20026;-79
2023/03/18 03:19:36;;;;;;;22.08;11.60;;;-0.60;84.80;;;;;;4994364;28;20015;-78
2023/03/18 03:22:02;;;;;;;21.13;12.93;;;-0.60;85.20;;;;;;4995482;28;20027;-78
2023/03/18 03:24:29;;;;;;;25.60;13.00;;;-0.70;85.80;;;;;;4994231;28;20388;-78
2023/03/18 03:26:54;;;;;;;20.10;13.27;;;-0.70;86.10;;;;;;4995362;28;20040;-77
2023/03/18 03:29:20;;;;;;;20.02;12.95;;;-0.80;86.50;;;;;;4994020;28;20547;-76
2023/03/18 03:31:46;;;;;;;19.52;12.40;;;-0.80;87.20;;;;;;4995325;28;20388;-76
2023/03/18 03:34:12;;;;;;;24.05;12.27;;;-0.80;87.40;;;;;;4995261;28;20045;-78
2023/03/18 03:36:38;;;;;;;23.75;11.38;;;-0.80;87.50;;;;;;4995142;28;20030;-77
2023/03/18 03:39:05;;;;;;;23.33;12.32;;;-0.80;87.30;;;;;;4994146;28;20026;-77
2023/03/18 03:41:30;;;;;;;20.40;11.38;;;-0.80;86.80;;;;;;4995071;28;20506;-81
2023/03/18 03:43:56;;;;;;;20.48;11.80;;;-0.80;86.40;;;;;;4993790;28;20027;-80
2023/03/18 03:46:21;;;;;;;22.70;12.35;;;-0.70;86.00;;;;;;4994879;28;20495;-77
2023/03/18 03:48:48;;;;;;;21.58;11.70;;;-0.70;85.90;;;;;;4995048;28;20524;-78
2023/03/18 03:51:14;;;;;;;22.63;12.38;;;-0.70;85.50;;;;;;4994897;28;20026;-78
2023/03/18 03:53:39;;;;;;;30.02;12.15;;;-0.70;85.40;;;;;;4993552;28;20034;-80
2023/03/18 03:56:06;;;;;;;23.83;12.02;;;-0.70;85.60;;;;;;4994892;28;20019;-80
2023/03/18 03:58:32;;;;;;;17.20;10.82;;;-0.70;85.70;;;;;;4994814;28;20390;-79
2023/03/18 04:00:58;;;;;;;19.52;10.77;;;-0.70;85.80;;;;;;4994791;28;20023;-77
2023/03/18 04:03:24;;;;;;;19.80;11.13;;;-0.70;86.00;;;;;;4994691;28;20644;-76
2023/03/18 04:05:50;;;;;;;17.85;10.52;;;-0.70;85.90;;;;;;4993297;28;20117;-76
2023/03/18 04:08:15;;;;;;;21.02;11.88;;;-0.70;85.80;;;;;;4993343;28;20026;-76
2023/03/18 04:10:41;;;;;;;22.23;10.90;;;-0.70;85.90;;;;;;4994481;28;20027;-82
2023/03/18 04:13:07;;;;;;;21.02;10.98;;;-0.70;86.10;;;;;;4994599;28;20026;-77
2023/03/18 04:15:33;;;;;;;18.00;11.27;;;-0.70;86.30;;;;;;4993063;28;20061;-82
2023/03/18 04:18:05;;;;;;;22.23;11.30;;;-0.70;86.50;;;;;;4993350;28;20451;-81
2023/03/18 04:20:32;;;;;;;19.40;11.10;;;-0.70;86.40;;;;;;4993132;28;20031;-77
2023/03/18 04:22:58;;;;;;;19.65;10.48;;;-0.70;86.50;;;;;;4992473;28;20026;-77
2023/03/18 04:25:24;;;;;;;20.90;10.95;;;-0.70;86.70;;;;;;4993083;28;20045;-81
2023/03/18 04:27:51;;;;;;;17.73;11.00;;;-0.80;87.00;;;;;;4993010;28;20026;-83
2023/03/18 04:30:19;;;;;;;21.70;12.63;;;-0.80;87.70;;;;;;4994209;28;20022;-77
2023/03/18 04:32:44;;;;;;;22.23;11.57;;;-0.80;87.90;;;;;;4994250;28;20030;-77
2023/03/18 04:35:10;;;;;;;26.45;11.82;;;-0.80;88.20;;;;;;4992816;28;20515;-82
2023/03/18 04:37:37;;;;;;;17.98;10.90;;;-0.80;88.20;;;;;;4992843;28;20073;-78
2023/03/18 04:40:05;;;;;;;15.25;11.20;;;-0.90;88.30;;;;;;4992812;28;20105;-77
2023/03/18 04:42:30;;;;;;;20.35;11.35;;;-0.90;88.60;;;;;;4994066;28;20076;-77
2023/03/18 04:44:56;;;;;;;20.70;11.48;;;-0.90;88.90;;;;;;4992856;28;20026;-77
2023/03/18 04:47:22;;;;;;;23.17;12.13;;;-1.00;89.20;;;;;;4993878;28;20049;-80
2023/03/18 04:49:48;;;;;;;17.77;11.48;;;-1.00;89.80;;;;;;4993938;28;20027;-80
2023/03/18 04:52:15;;;;;;;20.92;12.20;;;-1.10;91.10;;;;;;4992755;28;20404;-76
2023/03/18 04:54:41;;;;;;;22.02;12.55;;;-1.20;92.10;;;;;;4993766;28;20073;-79
2023/03/18 04:57:07;;;;;;;25.35;13.38;;;-1.20;93.10;;;;;;4993956;28;20113;-80
2023/03/18 04:59:33;;;;;;;24.25;13.93;;;-1.30;94.50;;;;;;4993936;28;20167;-77
2023/03/18 05:01:58;;;;;;;19.55;13.50;;;-1.30;95.60;;;;;;4983861;28;20027;-80
2023/03/18 05:04:24;;;;;;;23.13;12.82;;;-1.30;96.50;;;;;;4974387;28;20042;-77
2023/03/18 05:06:50;;;;;;;21.17;13.95;;;-1.30;97.60;;;;;;4974266;28;20484;-77
2023/03/18 05:09:18;;;;;;;19.33;12.30;;;-1.40;97.90;;;;;;4974456;28;20377;-77
2023/03/18 05:11:44;;;;;;;26.13;13.65;;;-1.30;97.70;;;;;;4973055;28;20021;-76
2023/03/18 05:14:09;;;;;;;18.85;12.48;;;-1.30;98.10;;;;;;4974281;28;20039;-78
2023/03/18 05:16:35;;;;;;;20.80;12.70;;;-1.30;97.90;;;;;;4972999;28;20011;-76
2023/03/18 05:19:01;;;;;;;19.58;11.23;;;-1.30;98.10;;;;;;4973555;28;20420;-79
2023/03/18 05:21:30;;;;;;;24.10;12.05;;;-1.20;98.10;;;;;;4973911;28;20038;-79
2023/03/18 05:24:00;;;;;;;19.38;11.98;;;-1.30;98.40;;;;;;4977500;28;20026;-79
2023/03/18 05:26:25;;;;;;;21.67;11.73;;;-1.20;98.80;;;;;;4992050;28;20026;-79
2023/03/18 05:28:51;;;;;;;21.83;12.93;;;-1.20;98.60;;;;;;4987895;28;20027;-79
2023/03/18 05:31:17;;;;;;;21.77;12.48;;;-1.20;98.60;;;;;;4973983;28;20105;-78
2023/03/18 05:33:43;;;;;;;23.13;10.95;;;-1.10;98.40;;;;;;4974727;28;20041;-77
2023/03/18 05:36:08;;;;;;;17.15;11.52;;;-1.10;97.80;;;;;;4976498;28;20023;-77
2023/03/18 05:38:34;;;;;;;23.65;12.60;;;-1.00;97.60;;;;;;4976211;28;20019;-77
2023/03/18 05:41:00;;;;;;;21.20;12.70;;;-1.00;96.90;;;;;;4976377;28;20038;-78
2023/03/18 05:43:27;;;;;;;27.30;12.80;;;-0.90;96.40;;;;;;4977708;28;20107;-77
2023/03/18 05:45:53;;;;;;;23.35;13.90;;;-0.80;95.50;;;;;;4976288;28;20481;-78
2023/03/18 05:48:18;;;;;;;19.92;12.32;;;-0.70;94.80;;;;;;4976123;28;20074;-77
2023/03/18 05:50:45;;;;;;;21.65;11.45;;;-0.70;94.00;;;;;;4974638;28;20034;-77
2023/03/18 05:53:11;;;;;;;22.17;12.73;;;-0.60;93.30;;;;;;4977575;28;20106;-77
2023/03/18 05:55:38;;;;;;;21.42;11.75;;;-0.50;92.90;;;;;;4976068;28;20437;-77
2023/03/18 05:58:05;;;;;;;18.10;11.60;;;-0.30;92.30;;;;;;4976197;28;20046;-77
2023/03/18 06:00:30;;;;;;;20.75;12.93;;;-0.20;91.80;;;;;;4976073;28;20031;-76
2023/03/18 06:02:58;;;;;;;20.70;12.57;;;-0.10;90.60;;;;;;4977220;28;20022;-79
2023/03/18 06:05:25;;;;;;;19.63;12.73;;;0.10;90.00;;;;;;4987260;28;20179;-77
2023/03/18 06:07:52;;;;;;;24.10;15.07;;;0.30;88.90;;;;;;4977440;28;20026;-77
2023/03/18 06:10:18;;;;;;;22.63;11.65;;;0.40;87.40;;;;;;4975990;28;20030;-77
2023/03/18 06:12:44;;;;;;;19.08;12.45;;;0.50;85.20;;;;;;4975844;28;20027;-77
2023/03/18 06:15:11;;;;;;;21.05;11.70;;;0.60;83.20;;;;;;4984595;28;20050;-78
2023/03/18 06:17:37;;;;;;;21.63;12.07;;;0.80;82.30;;;;;;4996655;28;20027;-79
2023/03/18 06:20:08;;;;;;;22.20;12.02;;;0.90;81.00;;;;;;4988697;28;20117;-80
2023/03/18 06:22:34;;;;;;;19.17;11.02;;;1.10;79.50;;;;;;4991829;28;20053;-79
2023/03/18 06:25:00;;;;;;;19.25;11.00;;;1.20;78.40;;;;;;4992018;28;20392;-80
2023/03/18 06:27:26;;;;;;;21.05;12.02;;;1.40;76.80;;;;;;4983113;28;20109;-80
2023/03/18 06:29:51;;;;;;;16.70;10.65;;;1.50;76.60;;;;;;4983020;28;20089;-80
2023/03/18 06:32:17;;;;;;;18.88;11.23;;;1.70;76.50;;;;;;4983672;28;20029;-79
2023/03/18 06:34:43;;;;;;;17.02;10.85;;;1.80;74.90;;;;;;4976030;28;20065;-77
2023/03/18 06:37:09;;;;;;;20.77;10.80;;;1.90;74.60;;;;;;4983984;28;20033;-79
2023/03/18 06:39:35;;;;;;;19.90;12.45;;;2.10;74.20;;;;;;4983148;28;20043;-77
2023/03/18 06:42:00;;;;;;;16.92;9.82;;;2.20;73.60;;;;;;4986166;28;20038;-77
2023/03/18 06:44:26;;;;;;;16.77;11.23;;;2.30;72.20;;;;;;4974663;28;20463;-77
2023/03/18 06:46:52;;;;;;;20.27;13.75;;;2.40;71.50;;;;;;4979163;28;20026;-77
2023/03/18 06:49:18;;;;;;;19.23;11.75;;;2.60;71.10;;;;;;4993104;28;20065;-78
2023/03/18 06:51:44;;;;;;;19.75;11.77;;;2.70;69.90;;;;;;4973719;28;20018;-77
2023/03/18 06:54:09;;;;;;;19.48;11.57;;;2.80;69.90;;;;;;4981353;28;20034;-77
2023/03/18 06:56:39;;;;;;;14.68;9.90;;;2.90;69.40;;;;;;4981695;28;20113;-77
2023/03/18 06:59:06;;;;;;;21.65;10.02;;;3.10;68.90;;;;;;4979083;28;20015;-77
2023/03/18 07:01:32;;;;;;;17.42;8.80;;;3.20;67.80;;;;;;4974930;28;20035;-77
2023/03/18 07:03:59;;;;;;;21.30;10.23;;;3.30;67.50;;;;;;4975753;28;20027;-78
2023/03/18 07:06:31;;;;;;;19.77;10.13;;;3.40;66.90;;;;;;4976072;28;20019;-78
2023/03/18 07:08:58;;;;;;;14.60;9.37;;;3.50;66.80;;;;;;4984585;28;20019;-78
2023/03/18 07:11:24;;;;;;;14.25;9.18;;;3.70;66.20;;;;;;4969707;28;20106;-78
2023/03/18 07:13:52;;;;;;;12.57;8.20;;;3.90;65.50;;;;;;4975449;28;20089;-78
2023/03/18 07:16:17;;;;;;;16.10;9.27;;;4.10;65.10;;;;;;4972598;28;20378;-77
2023/03/18 07:18:43;;;;;;;17.27;10.18;;;4.30;64.60;;;;;;4973428;28;20026;-78
2023/03/18 07:21:09;;;;;;;15.40;8.80;;;4.40;64.00;;;;;;4973836;28;20029;-78
2023/03/18 07:23:36;;;;;;;15.88;10.07;;;4.60;63.30;;;;;;4973866;28;20401;-78
2023/03/18 07:26:02;;;;;;;13.23;9.15;;;4.80;62.70;;;;;;4980834;28;20050;-78
2023/03/18 07:28:27;;;;;;;15.52;9.32;;;4.90;61.60;;;;;;4982702;28;20432;-77
2023/03/18 07:30:53;;;;;;;15.85;9.05;;;5.00;61.10;;;;;;4979648;28;20011;-78
2023/03/18 07:33:19;;;;;;;16.08;8.45;;;5.00;60.40;;;;;;4982165;28;20086;-78
2023/03/18 07:35:44;;;;;;;16.35;9.35;;;5.10;59.90;;;;;;4980069;28;20468;-78
2023/03/18 07:38:11;;;;;;;15.73;9.27;;;5.30;59.60;;;;;;4982946;28;20019;-77
2023/03/18 07:40:37;;;;;;;13.85;9.32;;;5.30;59.20;;;;;;4975312;28;20082;-77
2023/03/18 07:43:04;;;;;;;21.08;9.85;;;5.40;59.00;;;;;;4976592;28;20023;-77
2023/03/18 07:45:29;;;;;;;13.35;8.73;;;5.40;58.30;;;;;;4984260;28;20775;-77
2023/03/18 07:47:55;;;;;;;14.82;8.60;;;5.40;58.00;;;;;;4979563;28;20177;-77
2023/03/18 07:50:21;;;;;;;14.27;8.70;;;5.60;58.30;;;;;;4982549;28;20118;-77
2023/03/18 07:52:47;;;;;;;13.82;8.60;;;5.60;58.20;;;;;;4976686;28;20399;-77
2023/03/18 07:55:13;;;;;;;18.15;8.90;;;5.80;57.60;;;;;;4975613;28;20030;-77
2023/03/18 07:57:39;;;;;;;14.40;9.10;;;5.90;57.70;;;;;;4973829;28;20172;-77
2023/03/18 08:00:07;;;;;;;14.35;9.20;;;6.10;57.40;;;;;;4975070;28;20082;-77
2023/03/18 08:02:34;;;;;;;15.95;8.38;;;6.40;56.70;;;;;;4984811;28;20030;-77
2023/03/18 08:05:01;;;;;;;13.02;7.75;;;6.60;56.80;;;;;;4978906;28;20045;-78
2023/03/18 08:07:27;;;;;;;13.00;7.47;;;6.70;55.10;;;;;;4988792;28;20037;-77
2023/03/18 08:09:52;;;;;;;14.57;8.02;;;6.90;54.50;;;;;;4992582;28;20029;-77
2023/03/18 08:12:19;;;;;;;11.07;7.50;;;7.10;53.10;;;;;;4990127;28;20077;-78
2023/03/18 08:14:45;;;;;;;11.93;7.07;;;7.30;53.70;;;;;;4983644;28;20030;-77
2023/03/18 08:17:10;;;;;;;12.77;6.78;;;7.40;51.00;;;;;;4983804;28;20046;-78
2023/03/18 08:19:36;;;;;;;14.45;7.05;;;7.50;48.80;;;;;;4978937;28;20030;-77
2023/03/18 08:22:01;;;;;;;9.77;6.20;;;7.60;48.50;;;;;;4979162;28;20054;-77
2023/03/18 08:24:27;;;;;;;8.35;6.18;;;7.60;46.00;;;;;;4982421;28;20030;-76
2023/03/18 08:26:53;;;;;;;12.52;7.72;;;7.90;46.60;;;;;;4981883;28;20022;-75
2023/03/18 08:29:18;;;;;;;17.08;7.32;;;8.00;46.50;;;;;;4979691;28;20027;-76
2023/03/18 08:31:44;;;;;;;14.07;7.38;;;8.20;46.70;;;;;;4975848;28;20019;-80
2023/03/18 08:34:12;;;;;;;9.00;5.88;;;8.30;45.40;;;;;;4974141;28;20519;-80
2023/03/18 08:36:39;;;;;;;11.57;6.00;;;8.40;44.30;;;;;;4974105;28;20034;-77
2023/03/18 08:39:06;;;;;;;8.95;5.93;;;8.50;44.30;;;;;;4989118;28;20027;-77
2023/03/18 08:41:34;;;;;;;13.68;9.35;;;8.60;43.50;;;;;;4990735;28;20110;-77
2023/03/18 08:44:01;;;;;;;11.68;7.38;;;8.70;43.90;;;;;;4982064;28;20444;-78
2023/03/18 08:46:27;;;;;;;12.45;7.22;;;8.80;44.00;;;;;;4982395;28;20376;-78
2023/03/18 08:48:53;;;;;;;9.90;5.90;;;9.00;43.60;;;;;;4984259;28;20043;-78
2023/03/18 08:51:21;;;;;;;9.48;6.40;;;9.10;43.50;;;;;;4973803;28;20027;-78
2023/03/18 08:53:47;;;;;;;12.00;7.60;;;9.20;42.00;;;;;;4985494;28;20070;-78
2023/03/18 08:56:13;;;;;;;35.08;18.83;;;9.20;41.10;;;;;;4972821;28;20038;-79
2023/03/18 08:58:39;;;;;;;22.27;13.05;;;9.30;40.30;;;;;;4983654;28;20489;-80
2023/03/18 09:01:06;;;;;;;31.88;17.67;;;9.40;41.00;;;;;;4981767;28;20026;-79
2023/03/18 09:03:33;;;;;;;13.27;7.00;;;9.60;40.30;;;;;;4972986;28;20030;-79
2023/03/18 09:05:59;;;;;;;11.60;7.45;;;9.70;38.60;;;;;;4971368;28;20090;-82
2023/03/18 09:08:25;;;;;;;8.73;5.15;;;9.70;38.60;;;;;;4972634;28;20054;-80
2023/03/18 09:10:52;;;;;;;22.90;14.45;;;9.80;39.40;;;;;;4973217;28;20551;-80
2023/03/18 09:13:19;;;;;;;9.93;7.30;;;10.00;39.20;;;;;;4974540;28;20388;-80
2023/03/18 09:15:44;;;;;;;14.55;11.18;;;10.00;37.30;;;;;;4972790;28;20448;-80
2023/03/18 09:18:12;;;;;;;8.20;5.50;;;10.10;37.20;;;;;;4973115;28;20035;-80
2023/03/18 09:20:39;;;;;;;12.45;7.15;;;10.20;38.10;;;;;;4988839;28;20499;-80
2023/03/18 09:23:05;;;;;;;9.60;7.15;;;10.30;37.60;;;;;;4973278;28;20077;-80
2023/03/18 09:25:31;;;;;;;10.70;6.72;;;10.40;37.70;;;;;;4972737;28;20468;-79
2023/03/18 09:27:57;;;;;;;12.00;6.47;;;10.30;36.30;;;;;;4974881;28;20114;-80
2023/03/18 09:30:24;;;;;;;10.25;8.07;;;10.20;36.10;;;;;;4977000;28;20113;-80
2023/03/18 09:32:49;;;;;;;8.95;6.30;;;10.30;36.60;;;;;;4993412;28;20018;-81
2023/03/18 09:35:15;;;;;;;8.48;5.30;;;10.30;35.40;;;;;;4992384;28;20093;-81
2023/03/18 09:37:41;;;;;;;9.68;4.78;;;10.50;36.90;;;;;;4993798;28;20073;-78
2023/03/18 09:40:10;;;;;;;6.28;4.28;;;10.70;35.70;;;;;;4989103;28;20712;-80
2023/03/18 09:42:51;;;;;;;7.78;5.30;;;10.70;34.90;;;;;;4982704;28;20014;-81
2023/03/18 09:45:23;;;;;;;7.65;5.75;;;10.70;34.20;;;;;;4991581;28;20113;-80
2023/03/18 09:48:15;;;;;;;8.18;4.45;;;10.70;33.00;;;;;;4989088;28;20046;-80
2023/03/18 09:50:45;;;;;;;7.25;5.53;;;10.60;33.50;;;;;;4989180;28;20038;-79
2023/03/18 09:53:42;;;;;;;9.23;5.88;;;10.80;35.30;;;;;;4974470;28;20027;-79
2023/03/18 09:56:16;;;;;;;11.10;6.15;;;10.90;35.50;;;;;;4987764;28;20554;-79
2023/03/18 09:59:02;;;;;;;11.32;7.53;;;11.10;36.70;;;;;;4990605;28;20035;-80
2023/03/18 10:01:30;;;;;;;11.45;7.72;;;11.20;35.00;;;;;;4972678;28;20023;-79
2023/03/18 10:04:04;;;;;;;34.38;16.73;;;11.30;33.70;;;;;;4985030;28;20062;-79
2023/03/18 10:06:31;;;;;;;11.70;6.22;;;11.30;33.40;;;;;;4991998;28;20022;-79
2023/03/18 10:09:17;;;;;;;5.93;4.47;;;11.40;34.00;;;;;;4991255;28;20109;-80
2023/03/18 10:11:45;;;;;;;12.82;5.97;;;11.50;33.80;;;;;;4973356;28;20046;-79
2023/03/18 10:14:25;;;;;;;17.85;8.88;;;11.50;33.70;;;;;;4970727;28;20061;-79
2023/03/18 10:17:27;;;;;;;15.48;8.30;;;11.60;35.30;;;;;;4970610;28;20130;-80
2023/03/18 10:19:56;;;;;;;29.08;14.52;;;11.70;33.70;;;;;;4972379;28;20501;-79
2023/03/18 10:22:34;;;;;;;26.00;11.05;;;11.80;34.90;;;;;;4972957;28;20022;-80
2023/03/18 10:25:22;;;;;;;18.30;11.60;;;11.80;34.10;;;;;;4975909;28;20086;-79
2023/03/18 10:28:12;;;;;;;8.30;6.50;;;11.90;34.50;;;;;;4974975;28;20023;-81
2023/03/18 10:31:00;;;;;;;22.90;12.98;;;11.90;33.50;;;;;;4994353;28;20034;-81
2023/03/18 10:33:35;;;;;;;10.25;7.10;;;12.00;34.00;;;;;;4994460;28;20022;-81
2023/03/18 10:36:35;;;;;;;16.85;10.25;;;12.10;35.10;;;;;;4993944;28;20562;-81
2023/03/18 10:39:02;;;;;;;35.17;17.00;;;12.20;34.90;;;;;;4988368;28;20052;-81
2023/03/18 10:41:33;;;;;;;21.85;12.52;;;12.30;34.50;;;;;;4994175;28;20033;-81
2023/03/18 10:44:15;;;;;;;49.78;27.92;;;12.40;34.30;;;;;;4994483;28;20121;-79
2023/03/18 10:46:46;;;;;;;34.78;19.50;;;12.30;33.10;;;;;;4990336;28;20393;-81
2023/03/18 10:49:26;;;;;;;28.35;15.10;;;12.20;32.30;;;;;;4975280;28;20049;-81
2023/03/18 10:52:20;;;;;;;12.43;7.22;;;12.30;33.30;;;;;;4974863;28;20056;-81
2023/03/18 10:54:49;;;;;;;11.18;6.53;;;12.40;32.40;;;;;;4973592;28;20437;-81
2023/03/18 10:57:16;;;;;;;9.73;5.95;;;12.50;31.40;;;;;;4974587;28;20031;-81
2023/03/18 10:59:51;;;;;;;10.55;4.50;;;12.60;33.20;;;;;;4975074;28;20047;-80
2023/03/18 11:02:32;;;;;;;11.70;6.95;;;12.40;31.90;;;;;;4973796;28;20022;-80
2023/03/18 11:05:21;;;;;;;9.80;5.65;;;12.50;31.60;;;;;;4974445;28;20023;-80
2023/03/18 11:08:00;;;;;;;17.35;10.23;;;12.60;32.50;;;;;;4973624;28;20022;-80
2023/03/18 11:10:31;;;;;;;14.50;6.88;;;12.70;32.20;;;;;;4974421;28;20029;-80
2023/03/18 11:12:59;;;;;;;11.63;6.68;;;12.80;32.30;;;;;;4974132;28;20019;-81
2023/03/18 11:15:25;;;;;;;6.05;4.82;;;12.80;31.70;;;;;;4974360;28;20723;-80
2023/03/18 11:17:51;;;;;;;8.98;5.75;;;12.90;31.70;;;;;;4974702;28;20027;-80
2023/03/18 11:20:41;;;;;;;22.02;11.00;;;13.00;32.40;;;;;;4975161;28;20034;-81
2023/03/18 11:23:19;;;;;;;23.20;10.10;;;13.10;31.20;;;;;;4973583;28;20109;-81
2023/03/18 11:25:46;;;;;;;18.13;8.35;;;13.10;31.50;;;;;;4975941;28;20019;-81
2023/03/18 11:28:25;;;;;;;13.93;7.05;;;13.10;32.20;;;;;;4974546;28;20054;-80
2023/03/18 11:30:55;;;;;;;10.57;5.88;;;13.20;32.40;;;;;;4974705;28;20031;-81
2023/03/18 11:33:28;;;;;;;10.13;5.93;;;13.20;33.40;;;;;;4975407;28;20484;-81
2023/03/18 11:35:58;;;;;;;12.38;6.20;;;13.20;34.00;;;;;;4976002;28;20046;-81
2023/03/18 11:38:28;;;;;;;25.52;11.13;;;13.20;35.20;;;;;;4975700;28;20058;-80
2023/03/18 11:41:21;;;;;;;11.55;6.07;;;13.20;35.90;;;;;;4975999;28;20027;-81
2023/03/18 11:44:14;;;;;;;13.27;6.72;;;13.30;33.80;;;;;;4975781;28;20095;-81
2023/03/18 11:46:54;;;;;;;10.82;7.45;;;13.30;33.90;;;;;;4974345;28;20019;-80
2023/03/18 11:49:27;;;;;;;18.50;9.10;;;13.40;35.60;;;;;;4975967;28;20061;-80
2023/03/18 11:52:20;;;;;;;10.60;5.65;;;13.50;34.70;;;;;;4974274;28;20045;-81
2023/03/18 11:55:10;;;;;;;15.43;7.80;;;13.60;34.30;;;;;;4974529;28;20050;-80
2023/03/18 11:58:07;;;;;;;10.95;6.13;;;13.60;34.10;;;;;;4972580;28;20054;-81
2023/03/18 12:00:53;;;;;;;7.97;6.03;;;13.70;35.60;;;;;;4971960;28;20027;-81
2023/03/18 12:03:47;;;;;;;8.90;5.90;;;13.70;34.00;;;;;;4988212;28;20082;-79
2023/03/18 12:06:29;;;;;;;9.55;5.35;;;13.70;34.60;;;;;;4972196;28;20023;-79
2023/03/18 12:09:22;;;;;;;10.38;6.65;;;13.80;32.40;;;;;;4973193;28;20362;-79
2023/03/18 12:12:03;;;;;;;14.65;6.40;;;13.90;31.20;;;;;;4973849;28;20026;-81
2023/03/18 12:15:00;;;;;;;20.33;8.57;;;14.00;29.40;;;;;;4986511;28;20039;-80
2023/03/18 12:17:39;;;;;;;5.78;4.72;;;14.00;29.40;;;;;;4994561;28;20050;-80
2023/03/18 12:20:08;;;;;;;6.30;4.18;;;14.10;31.50;;;;;;4994744;28;20019;-79
2023/03/18 12:23:07;;;;;;;21.05;9.32;;;14.10;30.00;;;;;;4994450;28;20022;-79
2023/03/18 12:26:08;;;;;;;9.55;5.38;;;14.10;29.20;;;;;;4993407;28;20113;-80
2023/03/18 12:28:52;;;;;;;9.38;6.13;;;14.20;29.30;;;;;;4992980;28;20120;-79
2023/03/18 12:31:36;;;;;;;7.32;4.72;;;14.20;29.60;;;;;;4994180;28;20034;-79
2023/03/18 12:34:03;;;;;;;13.00;7.55;;;14.30;29.80;;;;;;4992963;28;20037;-79
2023/03/18 12:36:49;;;;;;;10.85;5.28;;;14.10;30.10;;;;;;4994270;28;20033;-79
2023/03/18 12:39:14;;;;;;;7.43;4.43;;;14.20;29.80;;;;;;4999359;28;20088;-81
2023/03/18 12:42:02;;;;;;;9.27;5.10;;;14.20;29.80;;;;;;4992645;28;20026;-79
2023/03/18 12:44:45;;;;;;;5.63;4.50;;;14.10;28.90;;;;;;4993788;28;20022;-80
2023/03/18 12:47:21;;;;;;;7.22;4.28;;;14.10;29.40;;;;;;4992591;28;20073;-79
2023/03/18 12:49:52;;;;;;;10.80;5.28;;;14.20;29.50;;;;;;4994016;28;20018;-79